Time;durP1;ratioP1;P1;durP2;ratioP2;P2;SDS_P1;SDS_P2;PMS_P1;PMS_P2;Temp;Humidity;BMP_temperature;BMP_pressure;BME280_temperature;BME280_humidity;BME280_pressure;Samples;Min_cycle;Max_cycle;Signal;HPM_P1;HPM_P2
2024/03/09 00:00:51;;;;;;;;;4.50;4.50;;;;;14.05;100.00;99291.53;2100257;28;46295;-54
2024/03/09 00:01:52;;;;;;;;;4.00;4.00;;;;;14.04;100.00;99285.34;2100141;28;46159;-52
2024/03/09 00:02:54;;;;;;;;;6.33;4.00;;;;;14.05;100.00;99291.53;2099594;28;46624;-52
2024/03/09 00:03:56;;;;;;;;;1.25;0.00;;;;;14.11;100.00;99285.84;2085169;28;46401;-53
2024/03/09 00:04:59;;;;;;;;;4.25;3.00;;;;;14.11;100.00;99285.84;2086227;28;46952;-52
2024/03/09 00:06:00;;;;;;;;;2.00;2.00;;;;;14.00;100.00;99289.13;2099422;28;46831;-50
2024/03/09 00:07:00;;;;;;;;;3.00;3.00;;;;;13.98;100.00;99279.50;2099454;28;45039;-53
2024/03/09 00:08:07;;;;;;;;;3.00;3.00;;;;;13.98;100.00;99283.03;2099911;28;47085;-51
2024/03/09 00:09:07;;;;;;;;;3.25;3.25;;;;;13.89;100.00;99285.38;2099205;28;46866;-51
2024/03/09 00:10:11;;;;;;;;;4.00;4.00;;;;;13.93;100.00;99284.25;2100186;28;46292;-53
2024/03/09 00:11:11;;;;;;;;;3.00;3.00;;;;;13.91;100.00;99283.47;2098253;28;46391;-53
2024/03/09 00:12:14;;;;;;;;;3.33;3.33;;;;;13.84;100.00;99285.63;2100778;28;46196;-53
2024/03/09 00:13:15;;;;;;;;;4.00;4.00;;;;;13.87;100.00;99288.13;2100346;28;46459;-52
2024/03/09 00:14:15;;;;;;;;;3.00;3.00;;;;;13.83;100.00;99281.25;2100107;28;45801;-53
2024/03/09 00:15:16;;;;;;;;;1.00;1.00;;;;;13.84;100.00;99282.94;2099725;28;45498;-53
2024/03/09 00:16:16;;;;;;;;;4.00;4.00;;;;;13.83;100.00;99279.44;2097428;28;46406;-54
2024/03/09 00:17:16;;;;;;;;;5.00;4.00;;;;;13.83;100.00;99284.75;2090227;28;46353;-52
2024/03/09 00:18:17;;;;;;;;;4.00;3.67;;;;;13.82;100.00;99279.53;2090691;28;46214;-52
2024/03/09 00:19:20;;;;;;;;;4.00;3.33;;;;;13.83;100.00;99291.91;2098115;28;46537;-50
2024/03/09 00:20:26;;;;;;;;;2.50;2.50;;;;;13.83;100.00;99284.75;2098597;28;46389;-53
2024/03/09 00:21:27;;;;;;;;;3.00;3.00;;;;;13.81;100.00;99280.47;2100687;28;46636;-47
2024/03/09 00:22:27;;;;;;;;;3.00;3.00;;;;;13.84;100.00;99283.81;2098598;28;47048;-53
2024/03/09 00:23:29;;;;;;;;;3.00;3.00;;;;;13.85;100.00;99284.69;2100626;28;46946;-52
2024/03/09 00:24:30;;;;;;;;;3.25;3.25;;;;;13.85;100.00;99284.69;2099259;28;45352;-54
2024/03/09 00:25:31;;;;;;;;;5.00;5.00;;;;;13.84;100.00;99286.47;2100159;28;47068;-53
2024/03/09 00:26:32;;;;;;;;;5.50;3.00;;;;;13.83;100.00;99275.91;2100215;28;46347;-53
2024/03/09 00:27:32;;;;;;;;;3.00;3.00;;;;;13.82;100.00;99279.53;2100169;28;46868;-51
2024/03/09 00:28:32;;;;;;;;;4.00;4.00;;;;;13.90;100.00;99277.28;2099503;28;45562;-52
2024/03/09 00:29:33;;;;;;;;;3.67;3.00;;;;;13.96;100.00;99276.91;2099776;28;45603;-51
2024/03/09 00:30:34;;;;;;;;;4.00;3.67;;;;;13.98;100.00;99276.84;2096610;28;46864;-52
2024/03/09 00:31:35;;;;;;;;;3.00;3.00;;;;;13.93;100.00;99274.44;2099867;28;46868;-53
2024/03/09 00:32:37;;;;;;;;;2.67;2.67;;;;;13.96;100.00;99271.56;2097457;28;46856;-52
2024/03/09 00:33:41;;;;;;;;;3.50;3.25;;;;;13.96;100.00;99273.38;2095422;28;46755;-53
2024/03/09 00:34:42;;;;;;;;;4.00;3.75;;;;;13.97;100.00;99270.63;2095579;28;46337;-49
2024/03/09 00:35:43;;;;;;;;;3.00;3.00;;;;;13.99;100.00;99271.41;2096122;28;46616;-53
2024/03/09 00:36:43;;;;;;;;;2.00;2.00;;;;;13.96;100.00;99268.91;2094820;28;46295;-54
2024/03/09 00:37:43;;;;;;;;;4.00;4.00;;;;;13.92;100.00;99264.72;2095485;28;46331;-51
2024/03/09 00:38:44;;;;;;;;;3.00;3.00;;;;;14.06;100.00;99266.56;2095563;28;46280;-52
2024/03/09 00:39:44;;;;;;;;;3.00;3.00;;;;;13.95;100.00;99264.53;2096198;28;45982;-51
2024/03/09 00:40:45;;;;;;;;;4.00;4.00;;;;;13.90;100.00;99260.44;2094464;28;46831;-51
2024/03/09 00:41:47;;;;;;;;;3.33;2.00;;;;;13.86;100.00;99264.22;2096299;28;46212;-50
2024/03/09 00:42:47;;;;;;;;;3.00;3.00;;;;;13.86;100.00;99261.56;2095181;28;46951;-51
2024/03/09 00:43:48;;;;;;;;;4.00;3.00;;;;;13.87;100.00;99257.94;2095781;28;46701;-51
2024/03/09 00:44:49;;;;;;;;;3.25;3.25;;;;;13.86;100.00;99257.09;2096092;28;45714;-51
2024/03/09 00:45:50;;;;;;;;;3.75;3.75;;;;;13.84;100.00;99258.94;2096164;28;46208;-54
2024/03/09 00:46:50;;;;;;;;;3.33;3.00;;;;;13.82;100.00;99258.19;2095551;28;46350;-52
2024/03/09 00:47:51;;;;;;;;;4.00;3.00;;;;;13.80;100.00;99260.94;2096395;28;45679;-52
2024/03/09 00:48:52;;;;;;;;;3.00;3.00;;;;;13.80;100.00;99260.94;2095672;28;46352;-51
2024/03/09 00:49:54;;;;;;;;;3.33;3.33;;;;;13.80;100.00;99252.94;2095722;28;46474;-53
2024/03/09 00:50:55;;;;;;;;;3.25;2.50;;;;;13.80;100.00;99247.63;2095151;28;46828;-53
2024/03/09 00:51:56;;;;;;;;;3.00;3.00;;;;;13.81;100.00;99259.16;2095545;28;46542;-55
2024/03/09 00:52:57;;;;;;;;;3.00;3.00;;;;;13.77;100.00;99252.28;2096342;28;46387;-54
2024/03/09 00:53:57;;;;;;;;;2.00;2.00;;;;;13.75;100.00;99247.03;2092567;28;45999;-54
2024/03/09 00:54:57;;;;;;;;;4.00;3.00;;;;;13.72;100.00;99241.00;2095605;28;46642;-51
2024/03/09 00:55:57;;;;;;;;;4.00;4.00;;;;;13.71;100.00;99231.28;2095682;28;46222;-51
2024/03/09 00:56:58;;;;;;;;;4.67;3.33;;;;;13.84;100.00;99235.81;2095830;28;46418;-52
2024/03/09 00:57:59;;;;;;;;;2.33;2.33;;;;;13.86;100.00;99237.56;2095863;28;45661;-51
2024/03/09 00:59:00;;;;;;;;;4.00;4.00;;;;;13.88;100.00;99233.00;2095849;28;46211;-51
2024/03/09 01:00:00;;;;;;;;;5.00;4.00;;;;;13.92;100.00;99237.19;2095104;28;46655;-52
2024/03/09 01:01:04;;;;;;;;;4.00;4.00;;;;;13.84;100.00;99229.63;2095000;28;46543;-51
2024/03/09 01:02:04;;;;;;;;;2.75;2.75;;;;;13.83;100.00;99234.09;2095090;28;46459;-52
2024/03/09 01:03:04;;;;;;;;;3.00;3.00;;;;;13.82;100.00;99226.19;2095652;28;46675;-52
2024/03/09 01:04:06;;;;;;;;;4.00;4.00;;;;;13.81;100.00;99219.16;2095424;28;46569;-54
2024/03/09 01:05:07;;;;;;;;;2.00;2.00;;;;;13.82;100.00;99227.06;2095651;28;46742;-51
2024/03/09 01:06:08;;;;;;;;;2.67;2.33;;;;;13.82;100.00;99219.06;2095340;28;45204;-51
2024/03/09 01:07:08;;;;;;;;;3.00;2.67;;;;;13.85;100.00;99218.03;2086701;28;46738;-53
2024/03/09 01:08:08;;;;;;;;;3.33;3.33;;;;;13.85;100.00;99218.03;2086384;28;46894;-52
2024/03/09 01:09:13;;;;;;;;;3.00;3.00;;;;;13.86;100.00;99214.41;2095861;28;46665;-53
2024/03/09 01:10:14;;;;;;;;;3.00;3.00;;;;;13.82;100.00;99208.38;2095699;28;46375;-52
2024/03/09 01:11:15;;;;;;;;;2.67;2.33;;;;;13.79;100.00;99208.56;2085394;28;46331;-51
2024/03/09 01:12:17;;;;;;;;;3.00;3.00;;;;;13.77;100.00;99209.63;2085920;28;46506;-53
2024/03/09 01:13:18;;;;;;;;;4.50;3.25;;;;;13.82;100.00;99210.19;2095992;28;45470;-50
2024/03/09 01:14:18;;;;;;;;;4.00;4.00;;;;;13.78;100.00;99206.84;2095347;28;46725;-51
2024/03/09 01:15:20;;;;;;;;;3.33;3.33;;;;;13.78;100.00;99204.19;2095668;28;46523;-49
2024/03/09 01:16:21;;;;;;;;;2.75;2.75;;;;;13.78;100.00;99209.53;2095407;28;46416;-51
2024/03/09 01:17:21;;;;;;;;;4.00;4.00;;;;;13.79;100.00;99208.56;2094991;28;46581;-54
2024/03/09 01:18:22;;;;;;;;;2.67;2.67;;;;;13.81;100.00;99208.47;2095327;28;45772;-53
2024/03/09 01:19:22;;;;;;;;;8.00;7.00;;;;;13.78;100.00;99206.00;2095437;28;46933;-53
2024/03/09 01:20:23;;;;;;;;;3.67;3.00;;;;;13.78;100.00;99198.84;2095537;28;46375;-53
2024/03/09 01:21:23;;;;;;;;;4.67;3.33;;;;;13.77;100.00;99207.81;2095258;28;46066;-53
2024/03/09 01:22:24;;;;;;;;;2.67;2.67;;;;;13.82;100.00;99211.06;2094604;28;46187;-52
2024/03/09 01:23:24;;;;;;;;;2.33;2.33;;;;;13.84;100.00;99203.81;2095058;28;46259;-52
2024/03/09 01:24:24;;;;;;;;;3.00;3.00;;;;;13.86;100.00;99216.22;2085995;28;46466;-53
2024/03/09 01:25:25;;;;;;;;;3.00;3.00;;;;;13.80;100.00;99210.28;2087084;28;46305;-51
2024/03/09 01:26:26;;;;;;;;;2.33;2.33;;;;;13.72;100.00;99207.25;2086345;28;47093;-52
2024/03/09 01:27:26;;;;;;;;;2.00;2.00;;;;;13.72;100.00;99203.69;2086134;28;46268;-52
2024/03/09 01:28:27;;;;;;;;;3.33;2.67;;;;;13.72;100.00;99201.91;2095220;28;46427;-49
2024/03/09 01:29:27;;;;;;;;;2.67;2.67;;;;;13.71;100.00;99205.50;2095291;28;46534;-52
2024/03/09 01:30:27;;;;;;;;;4.00;4.00;;;;;13.71;100.00;99202.81;2095276;28;46278;-51
2024/03/09 01:31:28;;;;;;;;;2.00;2.00;;;;;13.71;100.00;99202.81;2095306;28;46765;-54
2024/03/09 01:32:28;;;;;;;;;3.00;3.00;;;;;13.68;100.00;99199.47;2098989;27;47082;-52
2024/03/09 01:33:29;;;;;;;;;3.00;2.00;;;;;13.67;100.00;99198.63;2107196;27;45600;-53
2024/03/09 01:34:30;;;;;;;;;3.00;3.00;;;;;13.68;100.00;99204.81;2107876;27;46156;-53
2024/03/09 01:35:30;;;;;;;;;3.67;2.00;;;;;13.66;100.00;99196.91;2107428;27;46708;-52
2024/03/09 01:36:31;;;;;;;;;3.00;3.00;;;;;13.68;100.00;99205.69;2108437;27;46509;-51
2024/03/09 01:37:31;;;;;;;;;2.00;2.00;;;;;13.78;100.00;99198.84;2107161;27;46333;-52
2024/03/09 01:38:31;;;;;;;;;3.00;3.00;;;;;13.82;100.00;99195.06;2108768;27;46826;-49
2024/03/09 01:39:32;;;;;;;;;2.33;2.33;;;;;13.75;100.00;99196.38;2108128;27;46602;-52
2024/03/09 01:40:32;;;;;;;;;3.00;3.00;;;;;13.75;100.00;99196.38;2107800;27;46217;-52
2024/03/09 01:41:34;;;;;;;;;4.00;2.00;;;;;13.76;100.00;99191.91;2107807;27;46347;-53
2024/03/09 01:42:34;;;;;;;;;2.75;2.25;;;;;13.73;100.00;99197.44;2107276;27;47163;-52
2024/03/09 01:43:34;;;;;;;;;2.00;2.00;;;;;13.79;100.00;99189.91;2105949;27;46587;-53
2024/03/09 01:44:35;;;;;;;;;2.33;2.33;;;;;13.67;100.00;99187.97;2108856;27;45535;-48
2024/03/09 01:45:36;;;;;;;;;2.00;2.00;;;;;13.62;100.00;99176.72;2098065;28;46725;-52
2024/03/09 01:46:36;;;;;;;;;1.67;1.67;;;;;13.64;100.00;99182.81;2098059;28;46354;-52
2024/03/09 01:47:37;;;;;;;;;2.00;2.00;;;;;13.64;100.00;99176.63;2107123;27;46568;-54
2024/03/09 01:48:40;;;;;;;;;2.50;2.00;;;;;13.59;100.00;99173.34;2108063;27;46885;-53
2024/03/09 01:49:41;;;;;;;;;2.75;2.75;;;;;13.74;100.00;99175.16;2107796;27;46487;-53
2024/03/09 01:50:42;;;;;;;;;2.50;2.50;;;;;13.63;100.00;99175.78;2106800;27;46531;-51
2024/03/09 01:51:46;;;;;;;;;3.00;3.00;;;;;13.70;100.00;99178.91;2098636;28;46496;-50
2024/03/09 01:52:50;;;;;;;;;2.00;2.00;;;;;13.71;100.00;99177.97;2099848;27;46920;-48
2024/03/09 01:53:53;;;;;;;;;2.00;2.00;;;;;13.75;100.00;99172.38;2106955;27;46663;-53
2024/03/09 01:54:55;;;;;;;;;3.00;3.00;;;;;13.70;100.00;99170.94;2107868;27;46830;-53
2024/03/09 01:55:59;;;;;;;;;1.75;1.75;;;;;13.67;100.00;99168.44;2107736;27;46744;-52
2024/03/09 01:57:00;;;;;;;;;2.00;2.00;;;;;13.64;100.00;99160.63;2097103;28;46599;-52
2024/03/09 01:58:02;;;;;;;;;1.00;1.00;;;;;13.65;100.00;99171.22;2098332;27;46294;-51
2024/03/09 01:59:04;;;;;;;;;1.00;1.00;;;;;13.65;100.00;99167.69;2106720;27;46435;-52
2024/03/09 02:00:09;;;;;;;;;1.75;1.75;;;;;13.61;100.00;99169.69;2107729;27;46131;-50
2024/03/09 02:01:23;;;;;;;;;3.25;3.00;;;;;13.61;100.00;99163.50;2099620;28;46399;-50
2024/03/09 02:02:23;;;;;;;;;1.00;1.00;;;;;13.54;100.00;99162.97;2100242;27;47176;-53
2024/03/09 02:03:24;;;;;;;;;2.33;2.33;;;;;13.58;100.00;99159.19;2107258;27;46424;-52
2024/03/09 02:04:27;;;;;;;;;3.67;3.33;;;;;13.53;100.00;99163.94;2097868;28;46561;-53
2024/03/09 02:05:28;;;;;;;;;2.25;2.25;;;;;13.53;100.00;99164.78;2099329;27;46601;-53
2024/03/09 02:06:30;;;;;;;;;2.00;2.00;;;;;13.51;100.00;99164.03;2107223;27;46502;-52
2024/03/09 02:07:33;;;;;;;;;2.75;2.75;;;;;13.65;100.00;99157.88;2107044;27;45592;-52
2024/03/09 02:08:33;;;;;;;;;2.00;2.00;;;;;13.50;100.00;99159.66;2108304;27;46496;-50
2024/03/09 02:09:34;;;;;;;;;2.67;2.67;;;;;13.46;100.00;99158.09;2108234;27;46322;-50
2024/03/09 02:10:34;;;;;;;;;3.33;3.33;;;;;13.45;100.00;99151.03;2098334;28;45575;-51
2024/03/09 02:11:42;;;;;;;;;4.00;2.00;;;;;13.47;100.00;99150.97;2097949;28;45552;-49
2024/03/09 02:12:42;;;;;;;;;2.25;2.25;;;;;13.47;100.00;99143.84;2107533;27;45781;-52
2024/03/09 02:13:43;;;;;;;;;2.00;2.00;;;;;13.47;100.00;99151.84;2105401;27;46230;-50
2024/03/09 02:14:44;;;;;;;;;4.00;3.00;;;;;13.48;100.00;99144.69;2108016;27;45557;-51
2024/03/09 02:15:47;;;;;;;;;3.00;3.00;;;;;13.50;100.00;99150.78;2107996;27;46867;-50
2024/03/09 02:16:49;;;;;;;;;3.00;3.00;;;;;13.53;100.00;99145.28;2107642;27;46943;-49
2024/03/09 02:17:50;;;;;;;;;3.00;3.00;;;;;13.49;100.00;99141.94;2107527;27;47046;-51
2024/03/09 02:18:51;;;;;;;;;4.00;2.33;;;;;13.49;100.00;99147.28;2107222;27;46597;-53
2024/03/09 02:19:51;;;;;;;;;2.25;2.25;;;;;13.45;100.00;99137.72;2106933;27;46761;-49
2024/03/09 02:20:52;;;;;;;;;3.00;3.00;;;;;13.44;100.00;99140.47;2107950;27;46913;-53
2024/03/09 02:21:53;;;;;;;;;2.33;1.33;;;;;13.43;100.00;99138.75;2108102;27;45884;-51
2024/03/09 02:22:54;;;;;;;;;3.33;2.67;;;;;13.48;100.00;99136.69;2107692;27;46570;-50
2024/03/09 02:24:05;;;;;;;;;2.00;2.00;;;;;13.48;100.00;99134.03;2106705;27;46373;-51
2024/03/09 02:25:06;;;;;;;;;3.00;3.00;;;;;13.45;100.00;99134.19;2107359;27;46974;-52
2024/03/09 02:26:06;;;;;;;;;3.00;3.00;;;;;13.42;100.00;99127.25;2107614;27;46596;-52
2024/03/09 02:27:07;;;;;;;;;4.00;4.00;;;;;13.48;100.00;99118.91;2107772;27;45161;-52
2024/03/09 02:28:07;;;;;;;;;5.00;3.00;;;;;13.44;100.00;99132.47;2107408;27;46868;-53
2024/03/09 02:29:11;;;;;;;;;4.00;4.00;;;;;13.46;100.00;99122.59;2107680;27;47855;-50
2024/03/09 02:30:12;;;;;;;;;2.75;2.75;;;;;13.46;100.00;99133.25;2107764;27;46401;-51
2024/03/09 02:31:13;;;;;;;;;3.00;3.00;;;;;13.42;100.00;99129.06;2107020;27;45550;-51
2024/03/09 02:32:15;;;;;;;;;3.00;3.00;;;;;13.40;100.00;99125.63;2105445;27;46853;-51
2024/03/09 02:33:15;;;;;;;;;46.80;40.80;;;;;13.39;100.00;99126.56;2094240;28;46781;-53
2024/03/09 02:34:16;;;;;;;;;39.75;35.75;;;;;13.41;100.00;99119.34;2093974;28;46229;-51
2024/03/09 02:35:17;;;;;;;;;21.25;19.75;;;;;13.42;100.00;99118.38;2094987;28;46327;-52
2024/03/09 02:36:32;;;;;;;;;13.20;13.20;;;;;13.44;100.00;99114.69;2095474;28;45336;-54
2024/03/09 02:37:34;;;;;;;;;11.20;8.80;;;;;13.42;100.00;99118.38;2094405;28;46696;-59
2024/03/09 02:38:34;;;;;;;;;7.25;7.25;;;;;13.36;100.00;99124.94;2094893;28;46675;-54
2024/03/09 02:39:36;;;;;;;;;7.33;7.33;;;;;13.34;100.00;99116.19;2094989;28;45696;-50
2024/03/09 02:40:36;;;;;;;;;5.50;5.50;;;;;13.34;100.00;99121.53;2094694;28;46498;-48
2024/03/09 02:41:37;;;;;;;;;6.33;6.33;;;;;13.31;100.00;99113.69;2095614;28;45458;-50
2024/03/09 02:43:03;;;;;;;;;7.33;6.33;;;;;13.27;100.00;99108.63;2094341;28;46704;-51
2024/03/09 02:44:01;;;;;;;;;6.50;5.75;;;;;13.27;100.00;99101.50;2094226;28;46518;-48
2024/03/09 02:45:01;;;;;;;;;6.00;5.00;;;;;13.30;100.00;99103.97;2094423;28;47184;-50
2024/03/09 02:46:02;;;;;;;;;3.33;3.33;;;;;13.21;100.00;99094.75;2093386;28;47973;-50
2024/03/09 02:47:04;;;;;;;;;6.00;6.00;;;;;13.35;100.00;99093.06;2095337;28;46234;-50
2024/03/09 02:48:06;;;;;;;;;2.50;2.50;;;;;13.38;100.00;99092.88;2074359;28;47889;-50
2024/03/09 02:49:06;;;;;;;;;5.00;4.00;;;;;13.38;100.00;99092.88;2076449;28;46226;-54
2024/03/09 02:50:07;;;;;;;;;4.67;4.67;;;;;13.50;100.00;99098.34;2093950;28;46917;-52
2024/03/09 02:51:08;;;;;;;;;4.33;4.33;;;;;13.57;100.00;99093.50;2095388;28;46945;-52
2024/03/09 02:52:08;;;;;;;;;5.00;5.00;;;;;13.60;100.00;99090.66;2094300;28;46822;-53
2024/03/09 02:53:09;;;;;;;;;4.67;4.67;;;;;13.60;100.00;99085.34;2067948;28;45136;-55
2024/03/09 02:54:09;;;;;;;;;5.00;5.00;;;;;13.61;100.00;99086.19;2068738;28;46099;-51
2024/03/09 02:55:09;;;;;;;;;5.00;5.00;;;;;13.59;100.00;99086.25;2094467;28;46542;-54
2024/03/09 02:56:18;;;;;;;;;5.67;5.67;;;;;13.52;100.00;99085.78;2094259;28;46995;-52
2024/03/09 02:57:18;;;;;;;;;4.50;4.50;;;;;13.59;100.00;99080.94;2094902;28;45634;-52
2024/03/09 02:58:19;;;;;;;;;5.00;5.00;;;;;13.61;100.00;99079.06;2094584;28;46780;-52
2024/03/09 02:59:19;;;;;;;;;6.00;6.00;;;;;13.59;100.00;99083.59;2095216;28;46434;-50
2024/03/09 03:00:23;;;;;;;;;6.33;5.00;;;;;13.63;100.00;99074.47;2096000;28;46036;-48
2024/03/09 03:01:26;;;;;;;;;8.25;5.25;;;;;13.62;100.00;99074.59;2094890;28;46889;-51
2024/03/09 03:04:47;;;;;;;;;5.25;4.75;;;;;13.55;100.00;99077.59;2096564;28;46150;-52
2024/03/09 03:05:47;;;;;;;;;5.67;5.00;;;;;13.53;100.00;99070.66;2095938;28;46798;-52
2024/03/09 03:06:48;;;;;;;;;3.67;3.67;;;;;13.49;100.00;99074.47;2067617;28;46291;-48
2024/03/09 03:07:48;;;;;;;;;4.00;3.00;;;;;13.46;100.00;99070.13;2066570;28;45731;-49
2024/03/09 03:08:52;;;;;;;;;4.00;4.00;;;;;13.53;100.00;99076.84;2095545;28;46259;-50
2024/03/09 03:09:57;;;;;;;;;4.25;3.00;;;;;13.54;100.00;99072.38;2096288;28;46780;-51
2024/03/09 03:10:57;;;;;;;;;4.00;4.00;;;;;13.46;100.00;99070.13;2095553;28;46604;-53
2024/03/09 03:11:57;;;;;;;;;3.00;3.00;;;;;13.43;100.00;99077.47;2096275;28;46442;-54
2024/03/09 03:12:58;;;;;;;;;5.00;5.00;;;;;13.41;100.00;99069.56;2095356;28;46652;-53
2024/03/09 03:14:04;;;;;;;;;5.00;3.75;;;;;13.40;100.00;99075.00;2095930;28;45048;-53
2024/03/09 03:15:08;;;;;;;;;4.75;3.50;;;;;13.38;100.00;99075.09;2094034;28;46744;-53
2024/03/09 03:16:16;;;;;;;;;4.25;4.25;;;;;13.45;100.00;99073.75;2095311;28;46343;-52
2024/03/09 03:17:16;;;;;;;;;3.00;3.00;;;;;13.47;100.00;99077.22;2095434;28;46607;-53
2024/03/09 03:18:19;;;;;;;;;3.00;3.00;;;;;13.47;100.00;99077.22;2093918;28;45509;-52
2024/03/09 03:19:19;;;;;;;;;1.00;1.00;;;;;13.47;100.00;99069.22;2096264;28;46916;-49
2024/03/09 03:20:21;;;;;;;;;5.00;4.67;;;;;13.46;100.00;99071.94;2096131;28;46276;-54
2024/03/09 03:21:21;;;;;;;;;3.00;3.00;;;;;13.46;100.00;99071.94;2095756;28;46081;-52
2024/03/09 03:22:23;;;;;;;;;4.00;3.00;;;;;13.45;100.00;99070.25;2096165;28;47331;-54
2024/03/09 03:23:23;;;;;;;;;2.00;2.00;;;;;13.37;100.00;99069.84;2095015;28;46378;-53
2024/03/09 03:24:25;;;;;;;;;3.00;3.00;;;;;13.41;100.00;99071.38;2095965;28;46848;-53
2024/03/09 03:25:25;;;;;;;;;2.25;2.25;;;;;13.40;100.00;99067.84;2096117;28;46392;-53
2024/03/09 03:26:26;;;;;;;;;3.00;3.00;;;;;13.32;100.00;99066.59;2095950;28;46583;-52
2024/03/09 03:27:26;;;;;;;;;5.00;3.00;;;;;13.39;100.00;99068.81;2095835;28;46194;-54
2024/03/09 03:28:27;;;;;;;;;4.00;4.00;;;;;13.42;100.00;99073.09;2096043;28;46404;-53
2024/03/09 03:29:27;;;;;;;;;3.75;3.00;;;;;13.42;100.00;99073.09;2095131;28;46410;-51
2024/03/09 03:30:29;;;;;;;;;4.00;4.00;;;;;13.42;100.00;99070.44;2095441;28;45914;-53
2024/03/09 03:31:29;;;;;;;;;3.50;3.50;;;;;13.39;100.00;99066.16;2095685;28;45616;-53
2024/03/09 03:32:30;;;;;;;;;2.33;2.00;;;;;13.42;100.00;99065.09;2095698;28;46731;-50
2024/03/09 03:33:30;;;;;;;;;4.00;3.00;;;;;13.42;100.00;99067.75;2096355;28;46716;-53
2024/03/09 03:34:32;;;;;;;;;2.00;2.00;;;;;13.42;100.00;99067.75;2095474;28;46474;-54
2024/03/09 03:35:34;;;;;;;;;3.00;3.00;;;;;13.49;100.00;99061.13;2065762;28;46318;-52
2024/03/09 03:36:37;;;;;;;;;2.00;2.00;;;;;13.41;100.00;99063.38;2066850;28;46664;-54
2024/03/09 03:37:38;;;;;;;;;3.00;3.00;;;;;13.40;100.00;99059.00;2095841;28;46580;-55
2024/03/09 03:38:41;;;;;;;;;1.33;1.33;;;;;13.40;100.00;99061.66;2086872;28;46815;-54
2024/03/09 03:39:41;;;;;;;;;3.00;3.00;;;;;13.40;100.00;99057.19;2086934;28;46738;-55
2024/03/09 03:40:42;;;;;;;;;2.00;2.00;;;;;13.48;100.00;99046.94;2095711;28;46284;-54
2024/03/09 03:41:43;;;;;;;;;3.50;2.75;;;;;13.43;100.00;99042.81;2095524;28;46694;-56
2024/03/09 03:42:43;;;;;;;;;2.00;2.00;;;;;13.44;100.00;99044.53;2095962;28;46480;-56
2024/03/09 03:43:44;;;;;;;;;2.33;2.33;;;;;13.49;100.00;99034.47;2095147;28;45611;-55
2024/03/09 03:44:44;;;;;;;;;2.00;2.00;;;;;13.53;100.00;99038.66;2094937;28;47023;-56
2024/03/09 03:45:45;;;;;;;;;4.00;3.00;;;;;13.69;100.00;99039.44;2095644;28;46467;-54
2024/03/09 03:46:45;;;;;;;;;3.00;3.00;;;;;13.51;100.00;99032.59;2095976;28;46961;-53
2024/03/09 03:47:46;;;;;;;;;4.00;3.00;;;;;13.49;100.00;99029.16;2095911;28;46668;-55
2024/03/09 03:48:46;;;;;;;;;4.00;3.00;;;;;13.46;100.00;99027.50;2095855;28;46732;-51
2024/03/09 03:49:46;;;;;;;;;0.00;0.00;;;;;13.45;100.00;99035.59;2095856;28;46621;-52
2024/03/09 03:50:47;;;;;;;;;1.67;1.67;;;;;13.45;100.00;99033.78;2095718;28;46420;-51
2024/03/09 03:51:47;;;;;;;;;3.00;3.00;;;;;13.44;100.00;99028.56;2095454;28;46996;-51
2024/03/09 03:52:47;;;;;;;;;3.00;3.00;;;;;13.43;100.00;99030.38;2095548;28;46125;-50
2024/03/09 03:53:48;;;;;;;;;3.00;1.33;;;;;13.45;100.00;99027.59;2093719;28;47000;-53
2024/03/09 03:54:48;;;;;;;;;2.00;2.00;;;;;13.47;100.00;99023.91;2095679;28;46593;-53
2024/03/09 03:55:48;;;;;;;;;2.00;2.00;;;;;13.46;100.00;99016.84;2096453;28;46127;-52
2024/03/09 03:56:49;;;;;;;;;2.33;2.33;;;;;13.46;100.00;99011.53;2095340;28;46339;-52
2024/03/09 03:57:50;;;;;;;;;4.00;2.67;;;;;13.45;100.00;99014.28;2095800;28;46785;-51
2024/03/09 03:58:51;;;;;;;;;1.00;1.00;;;;;13.41;100.00;99002.97;2095530;28;46940;-52
2024/03/09 03:59:52;;;;;;;;;2.00;2.00;;;;;13.41;100.00;99010.09;2095049;28;46720;-50
2024/03/09 04:00:53;;;;;;;;;3.00;3.00;;;;;13.39;100.00;99010.19;2096146;28;45295;-48
2024/03/09 04:01:54;;;;;;;;;2.25;2.25;;;;;13.37;100.00;99014.75;2095880;28;45803;-53
2024/03/09 04:02:54;;;;;;;;;2.67;2.00;;;;;13.35;100.00;99003.34;2096124;28;45607;-53
2024/03/09 04:03:55;;;;;;;;;2.00;2.00;;;;;13.35;100.00;99002.50;2095501;28;45906;-50
2024/03/09 04:04:55;;;;;;;;;2.33;2.00;;;;;13.41;100.00;99002.97;2096215;28;46514;-50
2024/03/09 04:05:55;;;;;;;;;2.33;2.33;;;;;13.43;100.00;99000.19;2096393;28;46203;-51
2024/03/09 04:06:56;;;;;;;;;2.00;1.67;;;;;13.34;100.00;99004.28;2094939;28;46428;-52
2024/03/09 04:07:57;;;;;;;;;2.00;2.00;;;;;13.49;100.00;99008.69;2095608;28;46305;-50
2024/03/09 04:08:57;;;;;;;;;3.00;1.67;;;;;13.37;100.00;99009.44;2095851;28;46187;-52
2024/03/09 04:09:57;;;;;;;;;2.00;2.00;;;;;13.34;100.00;99006.06;2094843;28;45786;-48
2024/03/09 04:10:59;;;;;;;;;2.33;2.33;;;;;13.31;100.00;99006.25;2094983;28;46672;-52
2024/03/09 04:12:00;;;;;;;;;1.00;1.00;;;;;13.33;100.00;99009.69;2095783;28;45142;-50
2024/03/09 04:13:00;;;;;;;;;1.33;1.33;;;;;13.39;100.00;98999.53;2095509;28;46615;-53
2024/03/09 04:14:01;;;;;;;;;1.00;1.00;;;;;13.38;100.00;99008.47;2096400;28;46140;-53
2024/03/09 04:15:02;;;;;;;;;1.33;1.33;;;;;13.41;100.00;99008.28;2095502;28;46789;-54
2024/03/09 04:16:03;;;;;;;;;3.00;2.00;;;;;13.35;100.00;99005.16;2095462;28;47269;-52
2024/03/09 04:17:04;;;;;;;;;2.25;2.25;;;;;13.32;100.00;99010.63;2096154;28;47198;-50
2024/03/09 04:18:05;;;;;;;;;2.00;2.00;;;;;13.31;100.00;99003.59;2095573;28;46415;-49
2024/03/09 04:19:06;;;;;;;;;2.00;2.00;;;;;13.38;100.00;98997.81;2095703;28;45620;-52
2024/03/09 04:20:08;;;;;;;;;1.00;1.00;;;;;13.43;100.00;99001.06;2095568;28;46460;-51
2024/03/09 04:21:12;;;;;;;;;1.50;1.50;;;;;13.36;100.00;99006.88;2095894;28;46120;-52
2024/03/09 04:22:13;;;;;;;;;1.00;1.00;;;;;13.33;100.00;99013.22;2070818;28;45125;-51
2024/03/09 04:23:16;;;;;;;;;1.33;1.33;;;;;13.33;100.00;99015.88;2070724;28;46513;-52
2024/03/09 04:24:17;;;;;;;;;1.00;1.00;;;;;13.50;100.00;99017.53;2095428;28;46387;-51
2024/03/09 04:25:17;;;;;;;;;5.33;1.33;;;;;13.71;100.00;99000.22;2095835;28;46530;-50
2024/03/09 04:26:17;;;;;;;;;2.00;2.00;;;;;13.69;100.00;99011.94;2095648;28;46545;-50
2024/03/09 04:27:18;;;;;;;;;2.00;2.00;;;;;13.70;100.00;99006.50;2093928;28;46307;-51
2024/03/09 04:28:22;;;;;;;;;3.00;2.00;;;;;13.44;100.00;99002.75;2095492;28;46690;-51
2024/03/09 04:29:23;;;;;;;;;1.00;1.00;;;;;13.38;100.00;99010.28;2087092;28;47018;-50
2024/03/09 04:30:23;;;;;;;;;2.33;2.00;;;;;13.34;100.00;99011.41;2086550;28;46558;-53
2024/03/09 04:31:24;;;;;;;;;1.00;1.00;;;;;13.31;100.00;99015.13;2095760;28;45628;-50
2024/03/09 04:32:27;;;;;;;;;2.00;1.00;;;;;13.30;100.00;99008.06;2095731;28;46521;-51
2024/03/09 04:33:28;;;;;;;;;3.00;1.00;;;;;13.29;100.00;99010.84;2087163;28;46219;-53
2024/03/09 04:34:33;;;;;;;;;2.25;2.25;;;;;13.29;100.00;99013.50;2086948;28;46496;-51
2024/03/09 04:35:34;;;;;;;;;1.00;1.00;;;;;13.34;100.00;99016.72;2095582;28;46381;-51
2024/03/09 04:36:37;;;;;;;;;1.25;1.25;;;;;13.35;100.00;99013.16;2095806;28;46910;-51
2024/03/09 04:37:37;;;;;;;;;1.00;1.00;;;;;13.34;100.00;99012.28;2095851;28;46330;-51
2024/03/09 04:38:37;;;;;;;;;2.00;2.00;;;;;13.35;100.00;99008.66;2095580;28;46467;-52
2024/03/09 04:39:43;;;;;;;;;1.00;1.00;;;;;13.35;100.00;99016.66;2086935;28;46198;-49
2024/03/09 04:40:44;;;;;;;;;2.50;2.50;;;;;13.34;100.00;99011.41;2087761;28;46649;-53
2024/03/09 04:41:44;;;;;;;;;2.00;2.00;;;;;13.35;100.00;99006.00;2095040;28;46516;-51
2024/03/09 04:42:46;;;;;;;;;2.00;2.00;;;;;13.35;100.00;99007.81;2094872;28;46844;-53
2024/03/09 04:43:46;;;;;;;;;1.50;1.50;;;;;13.32;100.00;99011.50;2094444;28;46105;-50
2024/03/09 04:44:47;;;;;;;;;1.00;1.00;;;;;13.31;100.00;99009.78;2095600;28;46374;-52
2024/03/09 04:45:50;;;;;;;;;1.33;1.33;;;;;13.32;100.00;99015.97;2095193;28;46385;-49
2024/03/09 04:46:52;;;;;;;;;2.00;2.00;;;;;13.29;100.00;99013.50;2095772;28;46183;-51
2024/03/09 04:47:53;;;;;;;;;2.00;2.00;;;;;13.28;100.00;99011.78;2096190;28;46212;-51